sensor_id;sensor_type;location;lat;lon;timestamp;P1;durP1;ratioP1;P2;durP2;ratioP2
47912;SDS011;33676;51.006;17.180;2023-07-09T00:02:27;6.40;;;5.90;;
47912;SDS011;33676;51.006;17.180;2023-07-09T00:04:56;6.60;;;5.90;;
47912;SDS011;33676;51.006;17.180;2023-07-09T00:07:28;6.90;;;6.20;;
47912;SDS011;33676;51.006;17.180;2023-07-09T00:10:01;7.20;;;6.70;;
47912;SDS011;33676;51.006;17.180;2023-07-09T00:12:29;7.70;;;7.00;;
47912;SDS011;33676;51.006;17.180;2023-07-09T00:14:58;7.40;;;6.70;;
47912;SDS011;33676;51.006;17.180;2023-07-09T00:17:32;7.10;;;6.50;;
47912;SDS011;33676;51.006;17.180;2023-07-09T00:20:03;7.40;;;6.10;;
47912;SDS011;33676;51.006;17.180;2023-07-09T00:22:33;6.80;;;6.10;;
47912;SDS011;33676;51.006;17.180;2023-07-09T00:25:02;5.70;;;5.20;;
47912;SDS011;33676;51.006;17.180;2023-07-09T00:27:32;6.90;;;5.50;;
47912;SDS011;33676;51.006;17.180;2023-07-09T00:30:01;6.40;;;5.80;;
47912;SDS011;33676;51.006;17.180;2023-07-09T00:32:31;7.00;;;6.00;;
47912;SDS011;33676;51.006;17.180;2023-07-09T00:35:03;6.60;;;6.00;;
47912;SDS011;33676;51.006;17.180;2023-07-09T00:37:32;9.50;;;6.60;;
47912;SDS011;33676;51.006;17.180;2023-07-09T00:40:01;6.90;;;6.10;;
47912;SDS011;33676;51.006;17.180;2023-07-09T00:42:29;6.80;;;6.20;;
47912;SDS011;33676;51.006;17.180;2023-07-09T00:44:58;7.10;;;6.40;;
47912;SDS011;33676;51.006;17.180;2023-07-09T00:47:48;6.40;;;5.80;;
47912;SDS011;33676;51.006;17.180;2023-07-09T00:50:39;6.90;;;5.30;;
47912;SDS011;33676;51.006;17.180;2023-07-09T00:53:20;6.30;;;5.70;;
47912;SDS011;33676;51.006;17.180;2023-07-09T00:55:56;6.50;;;6.00;;
47912;SDS011;33676;51.006;17.180;2023-07-09T00:58:30;6.40;;;5.90;;
47912;SDS011;33676;51.006;17.180;2023-07-09T01:01:03;7.60;;;6.30;;
47912;SDS011;33676;51.006;17.180;2023-07-09T01:03:44;6.10;;;5.50;;
47912;SDS011;33676;51.006;17.180;2023-07-09T01:06:16;6.00;;;5.50;;
47912;SDS011;33676;51.006;17.180;2023-07-09T01:08:54;6.30;;;5.70;;
47912;SDS011;33676;51.006;17.180;2023-07-09T01:11:22;6.80;;;6.10;;
47912;SDS011;33676;51.006;17.180;2023-07-09T01:13:52;6.80;;;6.20;;
47912;SDS011;33676;51.006;17.180;2023-07-09T01:16:27;5.40;;;5.00;;
47912;SDS011;33676;51.006;17.180;2023-07-09T01:19:00;7.00;;;6.30;;
47912;SDS011;33676;51.006;17.180;2023-07-09T01:21:28;7.80;;;5.70;;
47912;SDS011;33676;51.006;17.180;2023-07-09T01:23:57;6.30;;;5.80;;
47912;SDS011;33676;51.006;17.180;2023-07-09T01:26:27;5.80;;;5.30;;
47912;SDS011;33676;51.006;17.180;2023-07-09T01:28:56;8.00;;;6.60;;
47912;SDS011;33676;51.006;17.180;2023-07-09T01:31:25;6.90;;;6.30;;
47912;SDS011;33676;51.006;17.180;2023-07-09T01:33:54;5.50;;;4.50;;
47912;SDS011;33676;51.006;17.180;2023-07-09T01:36:22;8.90;;;6.70;;
47912;SDS011;33676;51.006;17.180;2023-07-09T01:38:52;6.80;;;5.70;;
47912;SDS011;33676;51.006;17.180;2023-07-09T01:41:23;6.30;;;5.80;;
47912;SDS011;33676;51.006;17.180;2023-07-09T01:43:52;9.00;;;5.80;;
47912;SDS011;33676;51.006;17.180;2023-07-09T01:46:21;6.60;;;6.10;;
47912;SDS011;33676;51.006;17.180;2023-07-09T01:48:50;7.90;;;7.20;;
47912;SDS011;33676;51.006;17.180;2023-07-09T01:51:21;9.50;;;7.00;;
47912;SDS011;33676;51.006;17.180;2023-07-09T01:53:52;6.90;;;6.30;;
47912;SDS011;33676;51.006;17.180;2023-07-09T01:56:22;7.70;;;6.80;;
47912;SDS011;33676;51.006;17.180;2023-07-09T01:58:52;8.10;;;7.30;;
47912;SDS011;33676;51.006;17.180;2023-07-09T02:01:20;7.30;;;6.60;;
47912;SDS011;33676;51.006;17.180;2023-07-09T02:03:49;9.10;;;5.80;;
47912;SDS011;33676;51.006;17.180;2023-07-09T02:06:17;7.60;;;6.80;;
47912;SDS011;33676;51.006;17.180;2023-07-09T02:08:48;9.20;;;6.80;;
47912;SDS011;33676;51.006;17.180;2023-07-09T02:11:16;7.60;;;6.90;;
47912;SDS011;33676;51.006;17.180;2023-07-09T02:13:44;10.00;;;7.40;;
47912;SDS011;33676;51.006;17.180;2023-07-09T02:16:13;12.60;;;6.40;;
47912;SDS011;33676;51.006;17.180;2023-07-09T02:18:41;7.20;;;6.60;;
47912;SDS011;33676;51.006;17.180;2023-07-09T02:21:10;8.10;;;7.30;;
47912;SDS011;33676;51.006;17.180;2023-07-09T02:23:38;6.90;;;6.30;;
47912;SDS011;33676;51.006;17.180;2023-07-09T02:26:06;8.80;;;7.70;;
47912;SDS011;33676;51.006;17.180;2023-07-09T02:28:35;7.00;;;6.40;;
47912;SDS011;33676;51.006;17.180;2023-07-09T02:31:03;7.50;;;6.40;;
47912;SDS011;33676;51.006;17.180;2023-07-09T02:33:32;6.90;;;6.10;;
47912;SDS011;33676;51.006;17.180;2023-07-09T02:36:01;7.30;;;6.60;;
47912;SDS011;33676;51.006;17.180;2023-07-09T02:38:30;7.00;;;6.30;;
47912;SDS011;33676;51.006;17.180;2023-07-09T02:40:58;6.60;;;6.00;;
47912;SDS011;33676;51.006;17.180;2023-07-09T02:43:27;7.30;;;6.50;;
47912;SDS011;33676;51.006;17.180;2023-07-09T02:45:55;8.70;;;7.00;;
47912;SDS011;33676;51.006;17.180;2023-07-09T02:48:24;7.50;;;6.80;;
47912;SDS011;33676;51.006;17.180;2023-07-09T02:50:52;6.10;;;5.50;;
47912;SDS011;33676;51.006;17.180;2023-07-09T02:53:21;6.10;;;5.60;;
47912;SDS011;33676;51.006;17.180;2023-07-09T02:55:49;5.90;;;5.50;;
47912;SDS011;33676;51.006;17.180;2023-07-09T02:58:17;6.60;;;6.00;;
47912;SDS011;33676;51.006;17.180;2023-07-09T03:00:49;7.60;;;6.90;;
47912;SDS011;33676;51.006;17.180;2023-07-09T03:03:21;12.40;;;6.50;;
47912;SDS011;33676;51.006;17.180;2023-07-09T03:05:50;8.40;;;7.50;;
47912;SDS011;33676;51.006;17.180;2023-07-09T03:08:18;9.20;;;8.30;;
47912;SDS011;33676;51.006;17.180;2023-07-09T03:10:46;8.50;;;7.40;;
47912;SDS011;33676;51.006;17.180;2023-07-09T03:13:15;9.90;;;8.50;;
47912;SDS011;33676;51.006;17.180;2023-07-09T03:15:43;7.20;;;6.60;;
47912;SDS011;33676;51.006;17.180;2023-07-09T03:18:11;8.30;;;7.10;;
47912;SDS011;33676;51.006;17.180;2023-07-09T03:20:40;7.70;;;6.60;;
47912;SDS011;33676;51.006;17.180;2023-07-09T03:23:08;7.90;;;7.00;;
47912;SDS011;33676;51.006;17.180;2023-07-09T03:25:41;8.00;;;7.30;;
47912;SDS011;33676;51.006;17.180;2023-07-09T03:28:10;10.70;;;6.70;;
47912;SDS011;33676;51.006;17.180;2023-07-09T03:30:45;8.30;;;7.20;;
47912;SDS011;33676;51.006;17.180;2023-07-09T03:33:16;7.60;;;7.00;;
47912;SDS011;33676;51.006;17.180;2023-07-09T03:35:45;8.10;;;7.10;;
47912;SDS011;33676;51.006;17.180;2023-07-09T03:38:13;9.00;;;7.70;;
47912;SDS011;33676;51.006;17.180;2023-07-09T03:40:41;9.90;;;7.30;;
47912;SDS011;33676;51.006;17.180;2023-07-09T03:43:10;7.60;;;6.80;;
47912;SDS011;33676;51.006;17.180;2023-07-09T03:45:39;8.10;;;7.40;;
47912;SDS011;33676;51.006;17.180;2023-07-09T03:48:07;7.50;;;6.80;;
47912;SDS011;33676;51.006;17.180;2023-07-09T03:50:36;9.20;;;8.00;;
47912;SDS011;33676;51.006;17.180;2023-07-09T03:53:04;10.20;;;7.20;;
47912;SDS011;33676;51.006;17.180;2023-07-09T03:55:33;11.20;;;8.00;;
47912;SDS011;33676;51.006;17.180;2023-07-09T03:58:02;7.50;;;6.50;;
47912;SDS011;33676;51.006;17.180;2023-07-09T04:00:31;8.70;;;7.40;;
47912;SDS011;33676;51.006;17.180;2023-07-09T04:03:00;8.60;;;7.70;;
47912;SDS011;33676;51.006;17.180;2023-07-09T04:05:29;12.20;;;7.50;;
47912;SDS011;33676;51.006;17.180;2023-07-09T04:07:57;8.50;;;7.70;;
47912;SDS011;33676;51.006;17.180;2023-07-09T04:10:26;9.40;;;8.50;;
47912;SDS011;33676;51.006;17.180;2023-07-09T04:12:55;10.20;;;8.20;;
47912;SDS011;33676;51.006;17.180;2023-07-09T04:15:23;11.60;;;7.40;;
47912;SDS011;33676;51.006;17.180;2023-07-09T04:17:52;7.70;;;7.00;;
47912;SDS011;33676;51.006;17.180;2023-07-09T04:20:20;16.50;;;8.40;;
47912;SDS011;33676;51.006;17.180;2023-07-09T04:22:49;9.20;;;8.30;;
47912;SDS011;33676;51.006;17.180;2023-07-09T04:25:18;13.70;;;9.10;;
47912;SDS011;33676;51.006;17.180;2023-07-09T04:27:46;7.80;;;7.00;;
47912;SDS011;33676;51.006;17.180;2023-07-09T04:30:15;8.60;;;7.80;;
47912;SDS011;33676;51.006;17.180;2023-07-09T04:32:43;9.70;;;7.80;;
47912;SDS011;33676;51.006;17.180;2023-07-09T04:35:13;14.10;;;8.30;;
47912;SDS011;33676;51.006;17.180;2023-07-09T04:37:42;9.00;;;7.80;;
47912;SDS011;33676;51.006;17.180;2023-07-09T04:40:11;8.70;;;7.80;;
47912;SDS011;33676;51.006;17.180;2023-07-09T04:42:40;11.40;;;9.30;;
47912;SDS011;33676;51.006;17.180;2023-07-09T04:45:10;10.80;;;8.40;;
47912;SDS011;33676;51.006;17.180;2023-07-09T04:47:40;9.60;;;8.70;;
47912;SDS011;33676;51.006;17.180;2023-07-09T04:50:09;9.90;;;8.70;;
47912;SDS011;33676;51.006;17.180;2023-07-09T04:52:39;8.80;;;8.10;;
47912;SDS011;33676;51.006;17.180;2023-07-09T04:55:08;8.50;;;7.70;;
47912;SDS011;33676;51.006;17.180;2023-07-09T04:57:37;8.80;;;8.10;;
47912;SDS011;33676;51.006;17.180;2023-07-09T05:00:06;9.40;;;7.20;;
47912;SDS011;33676;51.006;17.180;2023-07-09T05:02:35;9.30;;;8.40;;
47912;SDS011;33676;51.006;17.180;2023-07-09T05:05:03;8.80;;;7.80;;
47912;SDS011;33676;51.006;17.180;2023-07-09T05:07:33;11.10;;;8.30;;
47912;SDS011;33676;51.006;17.180;2023-07-09T05:10:02;8.50;;;7.60;;
47912;SDS011;33676;51.006;17.180;2023-07-09T05:12:30;8.90;;;7.40;;
47912;SDS011;33676;51.006;17.180;2023-07-09T05:14:59;10.70;;;8.20;;
47912;SDS011;33676;51.006;17.180;2023-07-09T05:17:27;8.40;;;7.60;;
47912;SDS011;33676;51.006;17.180;2023-07-09T05:19:56;7.90;;;7.30;;
47912;SDS011;33676;51.006;17.180;2023-07-09T05:22:24;9.10;;;8.40;;
47912;SDS011;33676;51.006;17.180;2023-07-09T05:24:52;10.10;;;7.90;;
47912;SDS011;33676;51.006;17.180;2023-07-09T05:27:21;10.00;;;7.90;;
47912;SDS011;33676;51.006;17.180;2023-07-09T05:29:49;8.50;;;7.70;;
47912;SDS011;33676;51.006;17.180;2023-07-09T05:32:18;9.40;;;8.50;;
47912;SDS011;33676;51.006;17.180;2023-07-09T05:34:46;8.90;;;8.00;;
47912;SDS011;33676;51.006;17.180;2023-07-09T05:37:15;8.30;;;7.60;;
47912;SDS011;33676;51.006;17.180;2023-07-09T05:39:43;8.60;;;7.50;;
47912;SDS011;33676;51.006;17.180;2023-07-09T05:42:12;8.10;;;7.30;;
47912;SDS011;33676;51.006;17.180;2023-07-09T05:44:40;8.60;;;7.60;;
47912;SDS011;33676;51.006;17.180;2023-07-09T05:47:09;8.90;;;8.00;;
47912;SDS011;33676;51.006;17.180;2023-07-09T05:49:38;8.80;;;7.60;;
47912;SDS011;33676;51.006;17.180;2023-07-09T05:52:07;9.60;;;8.70;;
47912;SDS011;33676;51.006;17.180;2023-07-09T05:54:35;8.20;;;7.40;;
47912;SDS011;33676;51.006;17.180;2023-07-09T05:57:04;10.20;;;8.90;;
47912;SDS011;33676;51.006;17.180;2023-07-09T05:59:33;8.60;;;7.70;;
47912;SDS011;33676;51.006;17.180;2023-07-09T06:02:01;11.90;;;8.90;;
47912;SDS011;33676;51.006;17.180;2023-07-09T06:04:31;13.80;;;7.70;;
47912;SDS011;33676;51.006;17.180;2023-07-09T06:06:59;11.30;;;9.00;;
47912;SDS011;33676;51.006;17.180;2023-07-09T06:09:27;11.90;;;8.70;;
47912;SDS011;33676;51.006;17.180;2023-07-09T06:11:56;8.90;;;8.00;;
47912;SDS011;33676;51.006;17.180;2023-07-09T06:14:25;10.60;;;9.40;;
47912;SDS011;33676;51.006;17.180;2023-07-09T06:16:53;9.80;;;8.90;;
47912;SDS011;33676;51.006;17.180;2023-07-09T06:19:22;9.50;;;8.40;;
47912;SDS011;33676;51.006;17.180;2023-07-09T06:21:50;8.80;;;7.90;;
47912;SDS011;33676;51.006;17.180;2023-07-09T06:24:18;10.00;;;7.10;;
47912;SDS011;33676;51.006;17.180;2023-07-09T06:26:47;9.70;;;8.70;;
47912;SDS011;33676;51.006;17.180;2023-07-09T06:29:15;10.30;;;8.10;;
47912;SDS011;33676;51.006;17.180;2023-07-09T06:31:44;7.70;;;7.00;;
47912;SDS011;33676;51.006;17.180;2023-07-09T06:34:12;8.50;;;7.10;;
47912;SDS011;33676;51.006;17.180;2023-07-09T06:36:41;8.40;;;7.50;;
47912;SDS011;33676;51.006;17.180;2023-07-09T06:39:11;8.20;;;7.20;;
47912;SDS011;33676;51.006;17.180;2023-07-09T06:41:40;7.90;;;7.00;;
47912;SDS011;33676;51.006;17.180;2023-07-09T06:44:08;9.70;;;8.20;;
47912;SDS011;33676;51.006;17.180;2023-07-09T06:46:37;8.30;;;7.50;;
47912;SDS011;33676;51.006;17.180;2023-07-09T06:49:06;7.50;;;6.80;;
47912;SDS011;33676;51.006;17.180;2023-07-09T06:51:35;8.40;;;7.60;;
47912;SDS011;33676;51.006;17.180;2023-07-09T06:54:03;7.70;;;7.10;;
47912;SDS011;33676;51.006;17.180;2023-07-09T06:56:33;6.80;;;6.20;;
47912;SDS011;33676;51.006;17.180;2023-07-09T06:59:01;7.20;;;6.60;;
47912;SDS011;33676;51.006;17.180;2023-07-09T07:01:29;7.70;;;7.00;;
47912;SDS011;33676;51.006;17.180;2023-07-09T07:03:58;7.90;;;7.20;;
47912;SDS011;33676;51.006;17.180;2023-07-09T07:06:27;8.70;;;8.10;;
47912;SDS011;33676;51.006;17.180;2023-07-09T07:08:55;7.00;;;6.50;;
47912;SDS011;33676;51.006;17.180;2023-07-09T07:11:23;7.50;;;6.70;;
47912;SDS011;33676;51.006;17.180;2023-07-09T07:13:53;8.90;;;6.80;;
47912;SDS011;33676;51.006;17.180;2023-07-09T07:16:22;7.40;;;6.70;;
47912;SDS011;33676;51.006;17.180;2023-07-09T07:18:51;7.20;;;6.30;;
47912;SDS011;33676;51.006;17.180;2023-07-09T07:21:19;8.20;;;7.50;;
47912;SDS011;33676;51.006;17.180;2023-07-09T07:23:48;8.40;;;6.70;;
47912;SDS011;33676;51.006;17.180;2023-07-09T07:26:19;7.00;;;6.40;;
47912;SDS011;33676;51.006;17.180;2023-07-09T07:28:47;7.20;;;6.40;;
47912;SDS011;33676;51.006;17.180;2023-07-09T07:31:16;7.20;;;6.50;;
47912;SDS011;33676;51.006;17.180;2023-07-09T07:33:45;6.20;;;5.60;;
47912;SDS011;33676;51.006;17.180;2023-07-09T07:36:13;6.80;;;6.30;;
47912;SDS011;33676;51.006;17.180;2023-07-09T07:38:45;9.60;;;6.70;;
47912;SDS011;33676;51.006;17.180;2023-07-09T07:41:13;7.30;;;6.40;;
47912;SDS011;33676;51.006;17.180;2023-07-09T07:43:41;8.50;;;6.90;;
47912;SDS011;33676;51.006;17.180;2023-07-09T07:46:10;6.40;;;5.90;;
47912;SDS011;33676;51.006;17.180;2023-07-09T07:48:38;6.50;;;5.90;;
47912;SDS011;33676;51.006;17.180;2023-07-09T07:51:07;7.50;;;6.80;;
47912;SDS011;33676;51.006;17.180;2023-07-09T07:53:35;6.70;;;6.10;;
47912;SDS011;33676;51.006;17.180;2023-07-09T07:56:04;7.40;;;6.10;;
47912;SDS011;33676;51.006;17.180;2023-07-09T07:58:33;6.90;;;6.30;;
47912;SDS011;33676;51.006;17.180;2023-07-09T08:01:01;6.40;;;5.90;;
47912;SDS011;33676;51.006;17.180;2023-07-09T08:03:30;6.00;;;5.60;;
47912;SDS011;33676;51.006;17.180;2023-07-09T08:06:02;6.60;;;5.90;;
47912;SDS011;33676;51.006;17.180;2023-07-09T08:08:30;6.40;;;5.80;;
47912;SDS011;33676;51.006;17.180;2023-07-09T08:11:03;6.60;;;5.80;;
47912;SDS011;33676;51.006;17.180;2023-07-09T08:13:37;5.70;;;5.20;;
47912;SDS011;33676;51.006;17.180;2023-07-09T08:16:07;6.80;;;5.80;;
47912;SDS011;33676;51.006;17.180;2023-07-09T08:18:36;6.10;;;5.60;;
47912;SDS011;33676;51.006;17.180;2023-07-09T08:21:05;10.60;;;4.90;;
47912;SDS011;33676;51.006;17.180;2023-07-09T08:23:34;5.10;;;4.60;;
47912;SDS011;33676;51.006;17.180;2023-07-09T08:26:03;5.80;;;5.40;;
47912;SDS011;33676;51.006;17.180;2023-07-09T08:28:34;6.40;;;5.20;;
47912;SDS011;33676;51.006;17.180;2023-07-09T08:31:03;6.70;;;5.60;;
47912;SDS011;33676;51.006;17.180;2023-07-09T08:33:32;5.00;;;4.60;;
47912;SDS011;33676;51.006;17.180;2023-07-09T08:36:02;4.80;;;4.50;;
47912;SDS011;33676;51.006;17.180;2023-07-09T08:38:30;4.60;;;4.30;;
47912;SDS011;33676;51.006;17.180;2023-07-09T08:41:08;4.80;;;4.40;;
47912;SDS011;33676;51.006;17.180;2023-07-09T08:50:22;5.20;;;4.80;;
47912;SDS011;33676;51.006;17.180;2023-07-09T08:52:52;10.60;;;5.50;;
47912;SDS011;33676;51.006;17.180;2023-07-09T08:55:27;7.10;;;6.40;;
47912;SDS011;33676;51.006;17.180;2023-07-09T08:58:00;6.20;;;5.30;;
47912;SDS011;33676;51.006;17.180;2023-07-09T09:00:37;7.40;;;6.00;;
47912;SDS011;33676;51.006;17.180;2023-07-09T09:06:18;8.50;;;7.00;;
47912;SDS011;33676;51.006;17.180;2023-07-09T09:14:53;6.60;;;5.90;;
47912;SDS011;33676;51.006;17.180;2023-07-09T09:17:27;5.50;;;5.00;;
47912;SDS011;33676;51.006;17.180;2023-07-09T09:20:03;7.20;;;5.30;;
47912;SDS011;33676;51.006;17.180;2023-07-09T09:22:50;6.10;;;5.60;;
47912;SDS011;33676;51.006;17.180;2023-07-09T09:25:29;8.50;;;5.00;;
47912;SDS011;33676;51.006;17.180;2023-07-09T09:28:00;5.00;;;4.60;;
47912;SDS011;33676;51.006;17.180;2023-07-09T09:30:30;5.50;;;5.00;;
47912;SDS011;33676;51.006;17.180;2023-07-09T09:33:01;4.80;;;4.50;;
47912;SDS011;33676;51.006;17.180;2023-07-09T09:35:35;5.40;;;4.80;;
47912;SDS011;33676;51.006;17.180;2023-07-09T09:38:16;4.40;;;4.00;;
47912;SDS011;33676;51.006;17.180;2023-07-09T09:40:47;5.00;;;4.30;;
47912;SDS011;33676;51.006;17.180;2023-07-09T09:43:19;4.00;;;3.80;;
47912;SDS011;33676;51.006;17.180;2023-07-09T09:45:49;4.40;;;3.80;;
47912;SDS011;33676;51.006;17.180;2023-07-09T09:50:51;3.80;;;3.50;;
47912;SDS011;33676;51.006;17.180;2023-07-09T09:53:21;3.80;;;3.60;;
47912;SDS011;33676;51.006;17.180;2023-07-09T09:55:52;5.30;;;4.80;;
47912;SDS011;33676;51.006;17.180;2023-07-09T09:58:29;3.90;;;3.70;;
47912;SDS011;33676;51.006;17.180;2023-07-09T10:00:59;3.90;;;3.60;;
47912;SDS011;33676;51.006;17.180;2023-07-09T10:03:35;4.70;;;4.30;;
47912;SDS011;33676;51.006;17.180;2023-07-09T10:06:12;4.40;;;4.00;;
47912;SDS011;33676;51.006;17.180;2023-07-09T10:09:15;4.60;;;4.40;;
47912;SDS011;33676;51.006;17.180;2023-07-09T10:17:49;5.00;;;4.10;;
47912;SDS011;33676;51.006;17.180;2023-07-09T10:20:44;4.10;;;3.70;;
47912;SDS011;33676;51.006;17.180;2023-07-09T10:23:29;4.40;;;3.40;;
47912;SDS011;33676;51.006;17.180;2023-07-09T10:26:14;6.30;;;4.30;;
47912;SDS011;33676;51.006;17.180;2023-07-09T10:31:46;5.30;;;4.70;;
47912;SDS011;33676;51.006;17.180;2023-07-09T10:40:41;4.70;;;4.40;;
47912;SDS011;33676;51.006;17.180;2023-07-09T10:43:25;5.00;;;3.90;;
47912;SDS011;33676;51.006;17.180;2023-07-09T10:46:24;3.30;;;3.10;;
47912;SDS011;33676;51.006;17.180;2023-07-09T10:48:59;5.20;;;4.00;;
47912;SDS011;33676;51.006;17.180;2023-07-09T10:51:49;3.70;;;3.50;;
47912;SDS011;33676;51.006;17.180;2023-07-09T10:54:46;3.70;;;3.10;;
47912;SDS011;33676;51.006;17.180;2023-07-09T11:00:38;4.70;;;4.20;;
47912;SDS011;33676;51.006;17.180;2023-07-09T11:03:19;4.50;;;4.20;;
47912;SDS011;33676;51.006;17.180;2023-07-09T11:05:50;3.60;;;3.40;;
47912;SDS011;33676;51.006;17.180;2023-07-09T11:08:24;4.00;;;3.70;;
47912;SDS011;33676;51.006;17.180;2023-07-09T11:11:03;3.20;;;3.10;;
47912;SDS011;33676;51.006;17.180;2023-07-09T11:13:47;4.10;;;3.80;;
47912;SDS011;33676;51.006;17.180;2023-07-09T11:16:28;4.30;;;3.80;;
47912;SDS011;33676;51.006;17.180;2023-07-09T11:19:02;3.30;;;3.10;;
47912;SDS011;33676;51.006;17.180;2023-07-09T11:21:44;4.20;;;3.90;;
47912;SDS011;33676;51.006;17.180;2023-07-09T11:25:15;3.50;;;3.30;;
47912;SDS011;33676;51.006;17.180;2023-07-09T11:27:51;3.70;;;3.50;;
47912;SDS011;33676;51.006;17.180;2023-07-09T11:30:25;5.10;;;4.00;;
47912;SDS011;33676;51.006;17.180;2023-07-09T11:33:01;4.00;;;3.70;;
47912;SDS011;33676;51.006;17.180;2023-07-09T11:35:53;3.60;;;3.30;;
47912;SDS011;33676;51.006;17.180;2023-07-09T11:38:45;3.70;;;3.50;;
47912;SDS011;33676;51.006;17.180;2023-07-09T11:50:03;3.50;;;3.20;;
47912;SDS011;33676;51.006;17.180;2023-07-09T11:52:58;3.70;;;3.50;;
47912;SDS011;33676;51.006;17.180;2023-07-09T11:55:46;4.30;;;4.00;;
47912;SDS011;33676;51.006;17.180;2023-07-09T11:58:17;3.70;;;3.30;;
47912;SDS011;33676;51.006;17.180;2023-07-09T12:01:09;3.40;;;3.10;;
47912;SDS011;33676;51.006;17.180;2023-07-09T12:03:45;3.60;;;3.30;;
47912;SDS011;33676;51.006;17.180;2023-07-09T12:06:23;3.50;;;3.30;;
47912;SDS011;33676;51.006;17.180;2023-07-09T12:08:55;3.90;;;3.60;;
47912;SDS011;33676;51.006;17.180;2023-07-09T12:11:28;3.70;;;3.50;;
47912;SDS011;33676;51.006;17.180;2023-07-09T12:14:12;4.70;;;4.30;;
47912;SDS011;33676;51.006;17.180;2023-07-09T12:16:50;4.10;;;3.90;;
47912;SDS011;33676;51.006;17.180;2023-07-09T12:19:22;3.40;;;3.30;;
47912;SDS011;33676;51.006;17.180;2023-07-09T12:21:53;3.60;;;3.30;;
47912;SDS011;33676;51.006;17.180;2023-07-09T12:24:46;3.90;;;3.60;;
47912;SDS011;33676;51.006;17.180;2023-07-09T12:27:24;3.90;;;3.70;;
47912;SDS011;33676;51.006;17.180;2023-07-09T12:29:56;3.70;;;3.40;;
47912;SDS011;33676;51.006;17.180;2023-07-09T12:32:25;3.50;;;3.30;;
47912;SDS011;33676;51.006;17.180;2023-07-09T12:34:56;4.40;;;4.10;;
47912;SDS011;33676;51.006;17.180;2023-07-09T12:37:27;4.00;;;3.80;;
47912;SDS011;33676;51.006;17.180;2023-07-09T12:39:59;3.10;;;2.90;;
47912;SDS011;33676;51.006;17.180;2023-07-09T12:42:32;3.20;;;3.10;;
47912;SDS011;33676;51.006;17.180;2023-07-09T12:47:32;3.70;;;3.50;;
47912;SDS011;33676;51.006;17.180;2023-07-09T12:50:09;4.20;;;3.90;;
47912;SDS011;33676;51.006;17.180;2023-07-09T12:52:47;4.00;;;3.70;;
47912;SDS011;33676;51.006;17.180;2023-07-09T12:55:25;3.50;;;3.30;;
47912;SDS011;33676;51.006;17.180;2023-07-09T12:57:56;4.30;;;4.10;;
47912;SDS011;33676;51.006;17.180;2023-07-09T13:00:30;3.60;;;3.30;;
47912;SDS011;33676;51.006;17.180;2023-07-09T13:02:59;3.60;;;3.40;;
47912;SDS011;33676;51.006;17.180;2023-07-09T13:05:29;4.30;;;4.00;;
47912;SDS011;33676;51.006;17.180;2023-07-09T13:08:00;3.70;;;3.40;;
47912;SDS011;33676;51.006;17.180;2023-07-09T13:10:31;4.00;;;3.80;;
47912;SDS011;33676;51.006;17.180;2023-07-09T13:13:10;3.60;;;3.40;;
47912;SDS011;33676;51.006;17.180;2023-07-09T13:15:48;3.80;;;3.60;;
47912;SDS011;33676;51.006;17.180;2023-07-09T13:18:25;14.70;;;3.90;;
47912;SDS011;33676;51.006;17.180;2023-07-09T13:20:55;3.60;;;3.30;;
47912;SDS011;33676;51.006;17.180;2023-07-09T13:23:26;4.30;;;3.40;;
47912;SDS011;33676;51.006;17.180;2023-07-09T13:25:56;3.40;;;3.20;;
47912;SDS011;33676;51.006;17.180;2023-07-09T13:28:29;3.60;;;3.40;;
47912;SDS011;33676;51.006;17.180;2023-07-09T13:31:00;4.40;;;4.10;;
47912;SDS011;33676;51.006;17.180;2023-07-09T13:33:38;3.90;;;3.60;;
47912;SDS011;33676;51.006;17.180;2023-07-09T13:36:06;4.10;;;3.50;;
47912;SDS011;33676;51.006;17.180;2023-07-09T13:38:35;3.40;;;3.30;;
47912;SDS011;33676;51.006;17.180;2023-07-09T13:41:14;3.40;;;3.30;;
47912;SDS011;33676;51.006;17.180;2023-07-09T13:43:46;4.20;;;3.90;;
47912;SDS011;33676;51.006;17.180;2023-07-09T13:46:16;4.20;;;3.80;;
47912;SDS011;33676;51.006;17.180;2023-07-09T13:48:44;3.70;;;3.50;;
47912;SDS011;33676;51.006;17.180;2023-07-09T13:51:20;3.00;;;2.90;;
47912;SDS011;33676;51.006;17.180;2023-07-09T13:53:53;3.50;;;3.30;;
47912;SDS011;33676;51.006;17.180;2023-07-09T13:56:23;4.20;;;3.20;;
47912;SDS011;33676;51.006;17.180;2023-07-09T13:58:51;6.10;;;3.70;;
47912;SDS011;33676;51.006;17.180;2023-07-09T14:01:22;3.80;;;3.60;;
47912;SDS011;33676;51.006;17.180;2023-07-09T14:03:54;3.40;;;3.10;;
47912;SDS011;33676;51.006;17.180;2023-07-09T14:06:26;3.50;;;3.30;;
47912;SDS011;33676;51.006;17.180;2023-07-09T14:08:55;3.40;;;3.10;;
47912;SDS011;33676;51.006;17.180;2023-07-09T14:11:24;3.10;;;3.00;;
47912;SDS011;33676;51.006;17.180;2023-07-09T14:13:53;3.10;;;2.90;;
47912;SDS011;33676;51.006;17.180;2023-07-09T14:16:22;3.10;;;2.90;;
47912;SDS011;33676;51.006;17.180;2023-07-09T14:18:50;3.20;;;3.00;;
47912;SDS011;33676;51.006;17.180;2023-07-09T14:21:24;3.30;;;3.10;;
47912;SDS011;33676;51.006;17.180;2023-07-09T14:23:54;4.40;;;3.20;;
47912;SDS011;33676;51.006;17.180;2023-07-09T14:26:23;3.20;;;3.10;;
47912;SDS011;33676;51.006;17.180;2023-07-09T14:28:51;3.50;;;3.40;;
47912;SDS011;33676;51.006;17.180;2023-07-09T14:31:26;3.70;;;3.50;;
47912;SDS011;33676;51.006;17.180;2023-07-09T14:34:04;3.30;;;3.10;;
47912;SDS011;33676;51.006;17.180;2023-07-09T14:36:51;3.00;;;2.90;;
47912;SDS011;33676;51.006;17.180;2023-07-09T14:39:21;4.30;;;4.00;;
47912;SDS011;33676;51.006;17.180;2023-07-09T14:41:50;3.30;;;3.10;;
47912;SDS011;33676;51.006;17.180;2023-07-09T14:44:29;3.10;;;3.00;;
47912;SDS011;33676;51.006;17.180;2023-07-09T14:47:00;3.50;;;3.40;;
47912;SDS011;33676;51.006;17.180;2023-07-09T14:49:30;3.30;;;3.20;;
47912;SDS011;33676;51.006;17.180;2023-07-09T14:51:59;3.60;;;3.30;;
47912;SDS011;33676;51.006;17.180;2023-07-09T14:54:30;3.30;;;3.20;;
47912;SDS011;33676;51.006;17.180;2023-07-09T14:56:58;12.40;;;4.60;;
47912;SDS011;33676;51.006;17.180;2023-07-09T14:59:27;3.00;;;2.80;;
47912;SDS011;33676;51.006;17.180;2023-07-09T15:01:56;3.60;;;3.30;;
47912;SDS011;33676;51.006;17.180;2023-07-09T15:06:54;3.90;;;3.70;;
47912;SDS011;33676;51.006;17.180;2023-07-09T15:09:25;3.10;;;2.90;;
47912;SDS011;33676;51.006;17.180;2023-07-09T15:11:58;3.40;;;3.20;;
47912;SDS011;33676;51.006;17.180;2023-07-09T15:14:27;3.80;;;3.50;;
47912;SDS011;33676;51.006;17.180;2023-07-09T15:16:56;4.00;;;3.50;;
47912;SDS011;33676;51.006;17.180;2023-07-09T15:19:28;3.30;;;3.10;;
47912;SDS011;33676;51.006;17.180;2023-07-09T15:21:57;3.10;;;2.90;;
47912;SDS011;33676;51.006;17.180;2023-07-09T15:24:31;3.20;;;2.80;;
47912;SDS011;33676;51.006;17.180;2023-07-09T15:27:02;3.70;;;3.50;;
47912;SDS011;33676;51.006;17.180;2023-07-09T15:29:33;3.70;;;3.50;;
47912;SDS011;33676;51.006;17.180;2023-07-09T15:32:01;3.30;;;3.20;;
47912;SDS011;33676;51.006;17.180;2023-07-09T15:34:30;3.60;;;3.40;;
47912;SDS011;33676;51.006;17.180;2023-07-09T15:37:00;3.90;;;3.60;;
47912;SDS011;33676;51.006;17.180;2023-07-09T15:39:30;2.70;;;2.60;;
47912;SDS011;33676;51.006;17.180;2023-07-09T15:41:59;3.20;;;3.10;;
47912;SDS011;33676;51.006;17.180;2023-07-09T15:44:28;3.40;;;3.20;;
47912;SDS011;33676;51.006;17.180;2023-07-09T15:46:57;2.80;;;2.60;;
47912;SDS011;33676;51.006;17.180;2023-07-09T15:49:26;3.60;;;3.50;;
47912;SDS011;33676;51.006;17.180;2023-07-09T15:51:54;3.30;;;3.10;;